KPBG

Plattsburgh International Airport

Plattsburgh, New York, USA
METAR KPBG 170253Z AUTO 00000KT 10SM FEW110 03/00 A2992 RMK AO2 SLP133 T00330000 55004
Observed Flight Rules
Oct-17 @ 02:53 UTC (16 minutes ago) Visual Flight Rules
Visibility Clouds
10 miles
  • Few at 11,000' AGL
Temperatures Readings
Current 3°C / 37°F
Dewpoint 0°C / 32°F
Humidity 81%
Altimeter 29.92" Hg
Pressure 1013.3 hPa
Elevation 72
METAR KPBG 170253Z AUTO 00000KT 10SM FEW110 03/00 A2992 RMK AO2 SLP133 T00330000 55004
Observed Flight Rules
Oct-17 @ 02:53 UTC
(16 minutes ago)
VFR
Clouds
  • Few at 11,000' AGL
Temperature Dewpoint
3°C / 37°F 0°C / 32°F
Humidity Altimeter Pressure
81% 29.92" Hg 1013.3 hPa